Time;durP1;ratioP1;P1;durP2;ratioP2;P2;SDS_P1;SDS_P2;PMS_P1;PMS_P2;Temp;Humidity;BMP_temperature;BMP_pressure;BME280_temperature;BME280_humidity;BME280_pressure;Samples;Min_cycle;Max_cycle;Signal;HPM_P1;HPM_P2
2021/06/04 00:02:40;;;;;;;3.33;2.00;;;23.80;59.30;;;;;;6186536;28;20061;-82
2021/06/04 00:05:46;;;;;;;3.58;2.15;;;23.80;59.20;;;;;;6200383;28;20371;-81
2021/06/04 00:08:50;;;;;;;10.45;2.22;;;23.80;59.20;;;;;;6189141;28;20038;-81
2021/06/04 00:11:57;;;;;;;6.78;2.55;;;23.80;59.20;;;;;;6186541;28;20065;-83
2021/06/04 00:14:58;;;;;;;4.97;2.15;;;23.80;59.20;;;;;;6171522;28;20045;-82
2021/06/04 00:17:59;;;;;;;3.20;2.10;;;23.80;59.30;;;;;;6185844;28;20034;-83
2021/06/04 00:21:02;;;;;;;6.88;2.75;;;23.60;59.20;;;;;;6184427;28;20048;-82
2021/06/04 00:24:04;;;;;;;7.35;2.53;;;23.70;59.40;;;;;;6188125;28;20093;-82
2021/06/04 00:27:06;;;;;;;6.20;3.47;;;23.70;59.50;;;;;;6187536;28;20042;-82
2021/06/04 00:30:09;;;;;;;5.18;2.95;;;23.60;59.50;;;;;;6189026;28;20410;-82
2021/06/04 00:33:10;;;;;;;3.88;2.70;;;23.60;59.60;;;;;;6182882;28;20053;-82
2021/06/04 00:36:12;;;;;;;4.47;2.63;;;23.50;59.60;;;;;;6175237;28;20053;-82
2021/06/04 00:39:16;;;;;;;4.65;2.75;;;23.50;59.70;;;;;;6185455;28;20170;-82
2021/06/04 00:42:23;;;;;;;6.97;3.53;;;23.50;59.70;;;;;;6160819;28;20081;-82
2021/06/04 00:45:29;;;;;;;3.85;2.35;;;23.50;59.80;;;;;;6185684;28;20418;-81
2021/06/04 00:48:31;;;;;;;3.38;2.10;;;23.40;59.80;;;;;;6175486;28;20068;-81
2021/06/04 00:51:44;;;;;;;3.97;2.47;;;23.50;59.90;;;;;;6169731;28;20026;-81
2021/06/04 00:54:47;;;;;;;6.93;2.53;;;23.40;59.90;;;;;;6199607;28;20034;-81
2021/06/04 00:57:48;;;;;;;3.45;2.65;;;23.40;59.90;;;;;;6200269;28;20030;-81
2021/06/04 01:00:53;;;;;;;9.95;2.58;;;23.40;60.00;;;;;;6167347;28;20107;-82
2021/06/04 01:04:00;;;;;;;8.88;2.53;;;23.40;60.20;;;;;;6173333;28;20041;-82
2021/06/04 01:07:10;;;;;;;2.70;1.88;;;23.40;60.20;;;;;;6150057;28;20045;-82
2021/06/04 01:10:28;;;;;;;6.93;2.35;;;23.30;60.00;;;;;;6183289;28;20117;-81
2021/06/04 01:13:49;;;;;;;6.43;2.67;;;23.30;60.00;;;;;;6184500;28;20047;-82
2021/06/04 01:16:57;;;;;;;3.42;2.28;;;23.30;60.00;;;;;;6199013;28;20038;-81
2021/06/04 01:20:10;;;;;;;2.95;1.95;;;23.30;60.10;;;;;;6182469;28;20034;-82
2021/06/04 01:23:24;;;;;;;3.08;2.08;;;23.20;60.10;;;;;;6196759;28;20089;-81
2021/06/04 01:26:47;;;;;;;9.48;3.03;;;23.30;60.20;;;;;;6200480;28;20034;-82
2021/06/04 01:30:05;;;;;;;3.10;1.85;;;23.20;60.10;;;;;;6196867;28;20470;-82
2021/06/04 01:33:17;;;;;;;5.22;2.05;;;23.20;60.30;;;;;;6180148;28;20088;-82
2021/06/04 01:36:26;;;;;;;4.18;2.20;;;23.20;60.50;;;;;;6196867;28;20065;-82
2021/06/04 01:39:35;;;;;;;3.50;2.30;;;23.10;60.50;;;;;;6177669;28;20465;-82
2021/06/04 01:42:39;;;;;;;2.63;2.00;;;23.10;60.70;;;;;;6168931;28;20030;-82
2021/06/04 01:45:50;;;;;;;4.18;2.53;;;23.00;60.80;;;;;;6153068;28;20053;-82
2021/06/04 01:48:55;;;;;;;3.30;2.20;;;22.90;60.80;;;;;;6155148;28;20466;-82
2021/06/04 01:52:07;;;;;;;4.95;2.45;;;22.90;60.90;;;;;;6194732;28;20218;-83
2021/06/04 01:55:22;;;;;;;6.20;2.53;;;22.80;61.00;;;;;;6198554;28;20462;-82
2021/06/04 01:58:51;;;;;;;5.35;2.80;;;22.80;61.30;;;;;;6197393;28;20037;-82
2021/06/04 02:01:54;;;;;;;;;;;22.70;61.40;;;;;;6180074;28;20057;-83
2021/06/04 02:04:57;;;;;;;9.45;2.42;;;22.70;61.40;;;;;;6201359;28;19914;-83
2021/06/04 02:08:04;;;;;;;5.90;2.50;;;22.60;61.40;;;;;;6216563;28;20037;-82
2021/06/04 02:11:08;;;;;;;4.80;2.60;;;22.60;61.60;;;;;;6194778;28;20077;-82
2021/06/04 02:14:15;;;;;;;6.07;2.97;;;22.50;61.70;;;;;;6186758;28;20038;-82
2021/06/04 02:17:39;;;;;;;8.40;2.50;;;22.50;62.00;;;;;;6184505;28;20042;-82
2021/06/04 02:21:00;;;;;;;4.68;2.47;;;22.50;62.20;;;;;;6195478;28;20042;-82
2021/06/04 02:24:37;;;;;;;5.30;2.22;;;22.40;62.20;;;;;;6179950;28;20120;-81
2021/06/04 02:27:43;;;;;;;11.65;2.65;;;22.40;62.40;;;;;;6161027;28;20057;-81
2021/06/04 02:30:56;;;;;;;7.20;2.60;;;22.40;62.30;;;;;;6163039;28;20042;-82
2021/06/04 02:34:06;;;;;;;9.50;2.85;;;22.40;62.30;;;;;;6169882;28;20116;-81
2021/06/04 02:37:24;;;;;;;6.90;2.85;;;22.40;62.40;;;;;;6162874;28;20038;-82
2021/06/04 02:40:30;;;;;;;;;;;22.40;62.40;;;;;;6195241;28;20042;-82
2021/06/04 02:43:44;;;;;;;4.30;2.60;;;22.30;62.20;;;;;;6180030;28;19932;-82
2021/06/04 02:46:53;;;;;;;8.07;2.83;;;22.30;62.10;;;;;;6162652;28;20443;-83
2021/06/04 02:49:55;;;;;;;5.45;2.20;;;22.30;62.30;;;;;;6170289;28;20046;-83
2021/06/04 02:53:16;;;;;;;4.78;2.45;;;22.20;63.10;;;;;;6179382;28;20031;-83
2021/06/04 02:56:23;;;;;;;6.35;2.83;;;22.10;62.60;;;;;;6178975;28;20105;-83
2021/06/04 02:59:31;;;;;;;4.88;2.63;;;22.10;62.70;;;;;;6169395;28;20050;-82
2021/06/04 03:02:33;;;;;;;6.53;3.03;;;22.10;62.80;;;;;;6162761;28;20026;-82
2021/06/04 03:05:39;;;;;;;4.55;2.78;;;22.10;62.80;;;;;;6180892;28;20043;-82
2021/06/04 03:08:43;;;;;;;3.67;2.50;;;22.00;62.80;;;;;;6162800;28;20030;-82
2021/06/04 03:11:48;;;;;;;4.45;2.50;;;22.00;62.70;;;;;;6177969;28;20065;-82
2021/06/04 03:14:51;;;;;;;4.85;2.67;;;22.00;62.70;;;;;;6178904;28;20497;-82
2021/06/04 03:17:54;;;;;;;7.20;2.83;;;22.00;62.70;;;;;;6168401;28;20988;-83
2021/06/04 03:20:59;;;;;;;4.43;2.83;;;21.90;62.60;;;;;;6175844;28;20045;-82
2021/06/04 03:24:08;;;;;;;8.00;2.80;;;22.00;62.70;;;;;;6174127;28;20573;-83
2021/06/04 03:27:15;;;;;;;5.97;2.92;;;21.90;62.50;;;;;;6171125;28;20372;-82
2021/06/04 03:30:26;;;;;;;3.80;2.60;;;21.90;62.50;;;;;;6164069;28;20035;-82
2021/06/04 03:33:33;;;;;;;9.38;3.25;;;21.90;62.30;;;;;;6195926;28;20042;-82
2021/06/04 03:36:40;;;;;;;6.35;3.00;;;22.00;62.40;;;;;;6179234;28;20041;-82
2021/06/04 03:39:45;;;;;;;4.55;2.92;;;21.90;62.40;;;;;;6185074;28;20049;-82
2021/06/04 03:42:49;;;;;;;5.57;2.63;;;21.90;62.40;;;;;;6188015;28;20089;-82
2021/06/04 03:49:50;;;;;;;4.85;2.90;;;21.90;62.30;;;;;;6204743;28;20352;-82
2021/06/04 03:52:51;;;;;;;5.53;3.13;;;21.90;62.10;;;;;;6172537;28;20043;-82
2021/06/04 03:55:53;;;;;;;6.93;2.88;;;21.80;62.00;;;;;;6175892;28;20340;-81
2021/06/04 03:58:55;;;;;;;5.63;3.13;;;21.80;61.90;;;;;;6183329;28;20045;-81
2021/06/04 04:02:00;;;;;;;5.75;2.90;;;21.80;61.90;;;;;;6186564;28;20053;-81
2021/06/04 04:05:01;;;;;;;7.00;3.13;;;21.80;61.90;;;;;;6220495;28;20030;-81
2021/06/04 04:08:05;;;;;;;5.18;2.88;;;21.80;61.90;;;;;;6186417;28;20042;-82
2021/06/04 04:11:06;;;;;;;4.68;2.28;;;21.80;61.70;;;;;;6200249;28;20132;-82
2021/06/04 04:14:12;;;;;;;6.80;3.22;;;21.80;61.70;;;;;;6189664;28;20046;-82
2021/06/04 04:17:13;;;;;;;7.32;2.88;;;21.80;61.70;;;;;;6183615;28;20034;-83
2021/06/04 04:20:21;;;;;;;6.75;2.97;;;21.70;61.50;;;;;;6168561;28;20049;-83
2021/06/04 04:23:38;;;;;;;5.00;2.70;;;21.70;61.60;;;;;;6183254;28;20463;-82
2021/06/04 04:26:42;;;;;;;5.55;2.97;;;21.70;61.40;;;;;;6149509;28;20523;-83
2021/06/04 04:29:47;;;;;;;8.30;3.05;;;21.80;61.50;;;;;;6203267;28;20034;-84
2021/06/04 04:32:50;;;;;;;11.77;3.60;;;21.60;61.40;;;;;;6182855;28;20030;-79
2021/06/04 04:35:52;;;;;;;4.40;3.00;;;21.70;61.40;;;;;;6174255;28;20379;-76
2021/06/04 04:38:53;;;;;;;6.15;2.95;;;21.70;61.40;;;;;;6166129;28;20026;-77
2021/06/04 04:41:54;;;;;;;5.80;2.90;;;21.70;61.40;;;;;;6188561;28;20048;-77
2021/06/04 04:44:55;;;;;;;5.25;2.83;;;21.70;61.50;;;;;;6197860;28;20042;-77
2021/06/04 04:47:56;;;;;;;7.60;3.05;;;21.70;61.60;;;;;;6181756;28;20050;-77
2021/06/04 04:50:58;;;;;;;7.25;4.47;;;21.60;61.60;;;;;;6189570;28;20038;-77
2021/06/04 04:53:59;;;;;;;23.90;4.68;;;21.70;61.60;;;;;;6174654;28;20352;-78
2021/06/04 04:57:01;;;;;;;14.20;3.33;;;21.70;61.60;;;;;;6174144;28;20030;-76
2021/06/04 05:00:07;;;;;;;5.00;3.08;;;21.70;61.50;;;;;;6181913;28;20121;-78
2021/06/04 05:03:10;;;;;;;9.40;3.47;;;21.70;61.40;;;;;;6135026;28;20027;-78
2021/06/04 05:06:11;;;;;;;3.05;2.42;;;21.80;61.30;;;;;;6152644;28;20066;-78
2021/06/04 05:09:12;;;;;;;15.93;3.53;;;21.80;60.80;;;;;;6177616;28;20059;-78
2021/06/04 05:12:13;;;;;;;17.83;3.78;;;21.80;60.60;;;;;;6191622;28;20459;-78
2021/06/04 05:15:19;;;;;;;6.75;3.28;;;21.80;60.50;;;;;;6200047;28;20034;-77
2021/06/04 05:18:20;;;;;;;12.25;3.90;;;21.80;60.30;;;;;;6170512;28;20023;-77
2021/06/04 05:21:22;;;;;;;5.68;3.53;;;21.80;60.20;;;;;;6176579;28;20097;-80
2021/06/04 05:24:23;;;;;;;6.97;3.83;;;21.90;60.20;;;;;;6163850;28;20042;-78
2021/06/04 05:27:24;;;;;;;7.13;3.97;;;21.90;60.10;;;;;;6172275;28;20046;-79
2021/06/04 05:30:30;;;;;;;13.45;3.72;;;22.00;60.20;;;;;;6183288;28;20035;-79
2021/06/04 05:33:34;;;;;;;12.85;4.07;;;22.00;59.90;;;;;;6165584;28;20113;-80
2021/06/04 05:36:37;;;;;;;11.65;4.57;;;22.00;59.80;;;;;;6178080;28;20105;-80
2021/06/04 05:39:39;;;;;;;24.23;6.05;;;22.00;59.70;;;;;;6176246;28;20463;-80
2021/06/04 05:42:40;;;;;;;14.73;4.00;;;22.10;59.60;;;;;;6181021;28;20081;-81
2021/06/04 05:45:43;;;;;;;27.15;5.68;;;22.20;59.40;;;;;;6158522;28;20031;-79
2021/06/04 05:48:45;;;;;;;11.35;4.60;;;22.20;59.40;;;;;;6164495;28;20027;-80
2021/06/04 05:51:49;;;;;;;24.13;5.03;;;22.30;59.90;;;;;;6180569;28;20034;-80
2021/06/04 05:54:51;;;;;;;19.35;4.93;;;22.30;59.10;;;;;;6184506;28;20082;-80
2021/06/04 05:57:56;;;;;;;20.02;4.47;;;22.40;59.00;;;;;;6169941;28;20034;-80
2021/06/04 06:01:00;;;;;;;8.73;4.22;;;22.50;58.80;;;;;;6200445;28;20054;-79
2021/06/04 06:04:02;;;;;;;19.00;4.20;;;22.60;58.70;;;;;;6167022;28;20098;-80
2021/06/04 06:07:03;;;;;;;36.30;5.35;;;22.80;58.50;;;;;;6182167;28;20106;-81
2021/06/04 06:10:06;;;;;;;32.80;4.90;;;22.70;58.30;;;;;;6199851;28;20038;-80
2021/06/04 06:13:09;;;;;;;15.90;3.83;;;22.70;58.20;;;;;;6179473;28;20042;-80
2021/06/04 06:16:10;;;;;;;21.67;4.72;;;22.80;58.00;;;;;;6174522;28;20098;-80
2021/06/04 06:19:13;;;;;;;5.40;3.55;;;22.90;57.90;;;;;;6189003;28;20026;-79
2021/06/04 06:22:14;;;;;;;10.05;3.58;;;22.90;57.60;;;;;;6206905;28;20116;-78
2021/06/04 06:25:22;;;;;;;5.00;3.30;;;23.10;58.00;;;;;;6210449;28;20125;-80
2021/06/04 06:28:26;;;;;;;7.43;4.45;;;23.20;57.20;;;;;;6186529;28;20039;-79
2021/06/04 06:31:37;;;;;;;7.93;2.60;;;23.30;57.00;;;;;;6205816;28;20042;-78
2021/06/04 06:34:38;;;;;;;153.50;9.98;;;23.40;56.60;;;;;;6211999;28;20045;-79
2021/06/04 06:37:39;;;;;;;69.53;5.65;;;23.40;56.50;;;;;;6192420;28;20144;-79
2021/06/04 06:40:44;;;;;;;5.80;2.88;;;23.50;56.40;;;;;;6189123;28;20066;-78
2021/06/04 06:43:47;;;;;;;9.02;2.67;;;23.60;56.20;;;;;;6209987;28;20049;-79
2021/06/04 06:46:52;;;;;;;9.13;2.63;;;23.70;55.80;;;;;;6207932;28;20058;-78
2021/06/04 06:49:53;;;;;;;5.53;2.60;;;23.70;55.50;;;;;;6201538;28;20035;-78
2021/06/04 06:52:55;;;;;;;6.60;2.72;;;23.70;55.40;;;;;;6227840;28;20077;-79
2021/06/04 06:55:57;;;;;;;5.18;2.65;;;23.70;55.40;;;;;;6212473;28;20035;-79
2021/06/04 06:59:00;;;;;;;8.60;2.38;;;23.90;55.30;;;;;;6188508;28;20034;-78
2021/06/04 07:02:06;;;;;;;7.97;3.13;;;24.00;55.00;;;;;;6187247;28;20054;-79
2021/06/04 07:05:08;;;;;;;7.22;2.42;;;24.10;54.50;;;;;;6208498;28;20031;-78
2021/06/04 07:08:10;;;;;;;4.25;2.30;;;24.50;53.70;;;;;;6191423;28;21112;-77
2021/06/04 07:11:12;;;;;;;12.02;2.80;;;25.00;52.60;;;;;;6210437;28;20038;-78
2021/06/04 07:14:13;;;;;;;4.53;2.22;;;25.70;51.20;;;;;;6208773;28;20438;-78
2021/06/04 07:21:41;;;;;;;6.43;2.90;;;26.40;49.50;;;;;;6199150;28;20041;-78
2021/06/04 07:24:42;;;;;;;2.92;2.50;;;26.30;49.50;;;;;;6189997;28;20052;-78
2021/06/04 07:27:46;;;;;;;5.32;2.13;;;26.20;50.40;;;;;;6218550;28;20065;-78
2021/06/04 07:30:50;;;;;;;5.57;2.67;;;26.00;50.00;;;;;;6210587;28;20038;-78
2021/06/04 07:33:54;;;;;;;6.63;2.67;;;25.90;50.00;;;;;;6179615;28;20045;-79
2021/06/04 07:36:57;;;;;;;7.30;3.13;;;25.80;50.30;;;;;;6190120;28;20053;-78
2021/06/04 07:39:58;;;;;;;18.15;3.47;;;25.80;50.40;;;;;;6203525;28;20042;-78
2021/06/04 07:43:01;;;;;;;7.07;3.00;;;25.80;50.50;;;;;;6155278;28;20030;-77
2021/06/04 07:46:05;;;;;;;10.00;3.03;;;25.80;50.50;;;;;;6194621;28;20038;-80
2021/06/04 07:49:09;;;;;;;4.72;3.00;;;25.80;50.40;;;;;;6174904;28;20367;-78
2021/06/04 07:52:10;;;;;;;10.95;2.90;;;25.60;50.30;;;;;;6211473;28;20507;-78
2021/06/04 07:55:16;;;;;;;10.10;3.08;;;25.80;50.30;;;;;;6189468;28;20045;-78
2021/06/04 07:58:17;;;;;;;5.63;2.88;;;25.80;50.10;;;;;;6196910;28;20038;-79
2021/06/04 08:01:19;;;;;;;13.13;4.90;;;25.80;50.00;;;;;;6177836;28;20045;-79
2021/06/04 08:04:20;;;;;;;15.35;4.30;;;25.90;49.90;;;;;;6185052;28;20459;-78
2021/06/04 08:07:21;;;;;;;5.78;2.47;;;26.00;49.60;;;;;;6201617;28;20038;-78
2021/06/04 08:10:25;;;;;;;13.95;4.03;;;26.10;49.50;;;;;;6188563;28;20101;-79
2021/06/04 08:13:27;;;;;;;16.50;2.85;;;26.20;49.10;;;;;;6201612;28;20130;-79
2021/06/04 08:16:28;;;;;;;10.88;3.00;;;26.30;48.80;;;;;;6185178;28;20126;-78
2021/06/04 08:19:33;;;;;;;12.55;4.90;;;26.40;48.70;;;;;;6186069;28;20038;-78
2021/06/04 08:22:34;;;;;;;5.32;2.92;;;26.50;48.40;;;;;;6184558;28;20042;-77
2021/06/04 08:25:40;;;;;;;4.45;3.03;;;26.60;48.20;;;;;;6201224;28;20050;-78
2021/06/04 08:28:42;;;;;;;2.80;2.33;;;26.60;48.10;;;;;;6191972;28;20395;-78
2021/06/04 08:31:43;;;;;;;5.03;2.38;;;26.70;47.80;;;;;;6177214;28;20114;-78
2021/06/04 08:34:44;;;;;;;7.07;2.58;;;26.70;47.60;;;;;;6176779;28;20039;-78
2021/06/04 08:37:45;;;;;;;4.35;2.97;;;26.80;47.50;;;;;;6182690;28;20034;-78
2021/06/04 08:40:47;;;;;;;5.88;2.40;;;26.80;47.20;;;;;;6200138;28;20038;-77
2021/06/04 08:44:33;;;;;;;5.93;2.53;;;26.90;47.30;;;;;;6184512;28;20053;-78
2021/06/04 08:47:36;;;;;;;13.15;2.80;;;26.90;47.30;;;;;;6155061;28;20041;-78
2021/06/04 08:51:09;;;;;;;36.63;6.32;;;27.00;47.10;;;;;;6202280;28;20034;-78
2021/06/04 08:54:46;;;;;;;10.18;6.18;;;27.10;47.20;;;;;;6157625;28;20483;-78
2021/06/04 08:58:03;;;;;;;4.53;2.80;;;27.20;46.80;;;;;;6075358;29;20399;-79
2021/06/04 09:01:11;;;;;;;10.68;2.92;;;27.40;46.50;;;;;;6040300;29;20143;-79
2021/06/04 09:04:28;;;;;;;8.65;2.78;;;27.50;46.10;;;;;;6036837;29;20115;-79
2021/06/04 09:07:33;;;;;;;8.77;2.60;;;27.50;46.10;;;;;;6036777;29;20112;-78
2021/06/04 09:11:14;;;;;;;7.93;2.85;;;27.60;46.10;;;;;;6058454;29;20040;-78
2021/06/04 09:14:15;;;;;;;9.50;2.40;;;27.70;45.90;;;;;;6054262;29;20037;-78
2021/06/04 09:17:44;;;;;;;5.30;2.80;;;27.70;45.50;;;;;;6075526;29;20044;-79
2021/06/04 09:20:50;;;;;;;4.75;2.75;;;27.70;45.50;;;;;;6052520;29;20040;-78
2021/06/04 09:23:52;;;;;;;18.92;3.72;;;27.80;46.10;;;;;;6066427;29;20055;-78
2021/06/04 09:26:53;;;;;;;26.27;3.30;;;28.00;45.40;;;;;;6065233;29;20043;-79
2021/06/04 09:30:11;;;;;;;9.15;3.15;;;28.10;45.10;;;;;;6075514;29;20426;-79
2021/06/04 09:33:21;;;;;;;4.00;2.75;;;28.20;44.80;;;;;;6070475;28;20327;-78
2021/06/04 09:36:26;;;;;;;5.60;2.90;;;28.20;44.60;;;;;;6154616;28;20514;-79
2021/06/04 09:39:39;;;;;;;8.77;2.55;;;28.30;44.50;;;;;;6170565;28;20459;-78
2021/06/04 09:43:04;;;;;;;4.88;2.50;;;28.30;44.40;;;;;;6168387;28;20035;-78
2021/06/04 09:46:08;;;;;;;7.45;2.78;;;28.40;44.10;;;;;;6192080;28;20030;-77
2021/06/04 09:49:09;;;;;;;5.00;2.15;;;28.40;43.90;;;;;;6196123;28;20030;-78
2021/06/04 09:52:19;;;;;;;3.92;2.30;;;28.40;43.80;;;;;;6177667;28;20026;-78
2021/06/04 09:55:27;;;;;;;3.38;2.45;;;28.30;43.90;;;;;;6195020;28;20344;-78
2021/06/04 09:58:28;;;;;;;;;;;28.30;43.90;;;;;;6178196;28;20035;-78
2021/06/04 10:01:43;;;;;;;7.05;2.78;;;28.30;43.70;;;;;;6200503;28;19918;-80
2021/06/04 10:04:44;;;;;;;2.42;2.15;;;28.40;43.70;;;;;;6202490;28;20096;-78
2021/06/04 10:07:58;;;;;;;5.13;2.53;;;28.40;43.60;;;;;;6193472;28;20026;-78
2021/06/04 10:11:22;;;;;;;4.57;2.47;;;28.50;43.60;;;;;;6219080;28;20363;-79
2021/06/04 10:14:48;;;;;;;5.30;2.55;;;28.50;43.60;;;;;;6188992;28;114128;-78
2021/06/04 10:21:17;;;;;;;5.47;2.60;;;28.80;43.20;;;;;;6180152;28;20035;-79
2021/06/04 10:24:26;;;;;;;5.93;2.70;;;28.80;43.00;;;;;;6155135;28;20043;-78
2021/06/04 10:27:32;;;;;;;4.47;2.38;;;29.00;42.70;;;;;;6130875;28;20039;-78
2021/06/04 10:30:33;;;;;;;6.65;2.85;;;29.00;42.30;;;;;;6140459;28;20121;-78
2021/06/04 10:34:08;;;;;;;5.28;2.78;;;29.20;42.00;;;;;;6172841;28;20035;-79
2021/06/04 10:37:27;;;;;;;7.00;2.50;;;29.30;41.90;;;;;;6131771;28;20038;-79
2021/06/04 10:40:52;;;;;;;6.75;2.70;;;29.40;41.50;;;;;;6121627;28;20464;-78
2021/06/04 10:44:09;;;;;;;7.95;3.30;;;29.50;41.20;;;;;;6188941;28;20436;-78
2021/06/04 10:47:34;;;;;;;6.40;2.60;;;29.70;41.00;;;;;;6156477;28;20034;-79
2021/06/04 10:50:54;;;;;;;7.95;2.53;;;29.80;40.50;;;;;;6150395;28;20035;-78
2021/06/04 10:54:01;;;;;;;11.10;2.42;;;30.00;40.10;;;;;;6152364;28;20070;-78
2021/06/04 10:57:09;;;;;;;6.07;2.30;;;30.20;39.80;;;;;;6155630;28;20400;-79
2021/06/04 11:00:15;;;;;;;8.20;2.60;;;30.40;39.10;;;;;;6155186;28;20042;-79
2021/06/04 11:03:19;;;;;;;5.25;2.38;;;30.70;38.60;;;;;;6154538;28;20035;-77
2021/06/04 11:06:56;;;;;;;8.98;2.53;;;31.60;37.00;;;;;;6157904;28;20041;-78
2021/06/04 11:10:17;;;;;;;3.78;2.17;;;32.60;35.70;;;;;;6151396;28;20516;-79
2021/06/04 11:14:03;;;;;;;24.58;2.78;;;33.70;34.30;;;;;;6139627;28;20412;-79
2021/06/04 11:17:22;;;;;;;4.57;2.97;;;34.30;33.10;;;;;;6117510;28;20181;-79
2021/06/04 11:20:30;;;;;;;5.75;2.08;;;35.20;31.60;;;;;;6178789;28;20125;-77
2021/06/04 11:23:45;;;;;;;7.05;1.98;;;35.70;30.30;;;;;;6175801;28;20053;-79
2021/06/04 11:26:55;;;;;;;7.63;2.33;;;36.20;29.50;;;;;;6190720;28;20045;-79
2021/06/04 11:29:58;;;;;;;4.70;2.10;;;36.70;28.90;;;;;;6181182;28;20404;-78
2021/06/04 11:33:09;;;;;;;5.60;2.05;;;37.20;28.60;;;;;;6164862;28;20042;-79
2021/06/04 11:36:18;;;;;;;3.58;1.98;;;37.80;27.80;;;;;;6175909;28;20356;-79
2021/06/04 11:39:43;;;;;;;6.85;1.90;;;38.20;27.30;;;;;;6191822;28;20395;-79
2021/06/04 11:42:47;;;;;;;4.88;2.10;;;38.60;26.80;;;;;;6175686;28;20377;-78
2021/06/04 11:46:13;;;;;;;5.43;2.30;;;38.80;26.20;;;;;;6189985;28;20034;-78
2021/06/04 11:49:17;;;;;;;9.10;2.10;;;38.80;25.80;;;;;;6164757;28;20031;-78
2021/06/04 11:52:43;;;;;;;3.95;1.55;;;38.90;25.70;;;;;;6165510;28;20030;-79
2021/06/04 11:55:45;;;;;;;5.30;1.60;;;39.00;25.60;;;;;;6162298;28;20034;-79
2021/06/04 12:03:08;;;;;;;2.40;1.65;;;38.90;24.70;;;;;;6209990;28;20462;-78
2021/06/04 12:06:25;;;;;;;4.22;1.65;;;38.90;24.70;;;;;;6206727;28;20041;-79
2021/06/04 12:09:33;;;;;;;2.20;1.38;;;39.00;24.40;;;;;;6223080;28;20037;-78
2021/06/04 12:12:56;;;;;;;2.08;1.30;;;39.30;24.00;;;;;;6204636;28;20034;-79
2021/06/04 12:16:25;;;;;;;3.03;1.60;;;39.00;24.00;;;;;;6159703;28;20428;-79
2021/06/04 12:19:37;;;;;;;3.95;1.35;;;38.50;24.70;;;;;;6173977;28;20039;-79
2021/06/04 12:22:43;;;;;;;4.82;1.40;;;38.40;24.50;;;;;;6176600;28;20031;-78
2021/06/04 12:25:44;;;;;;;1.88;1.30;;;38.50;24.20;;;;;;6160065;28;20042;-79
2021/06/04 12:28:45;;;;;;;1.35;1.25;;;38.80;24.00;;;;;;6173838;28;20058;-79
2021/06/04 12:31:52;;;;;;;2.50;1.23;;;38.90;23.80;;;;;;6173865;28;20402;-78
2021/06/04 12:35:00;;;;;;;9.82;1.48;;;38.70;23.60;;;;;;6173075;28;20045;-78
2021/06/04 12:38:25;;;;;;;4.07;1.60;;;38.00;24.20;;;;;;6158217;28;20065;-80
2021/06/04 12:41:34;;;;;;;9.77;1.55;;;37.00;25.20;;;;;;6169590;28;20054;-81
2021/06/04 12:44:35;;;;;;;5.03;1.48;;;36.10;26.00;;;;;;6158446;28;20045;-81
2021/06/04 12:47:47;;;;;;;33.75;3.00;;;35.40;26.80;;;;;;6158104;28;20110;-82
2021/06/04 12:50:57;;;;;;;56.65;3.92;;;35.10;27.50;;;;;;6174305;28;20034;-81
2021/06/04 12:54:09;;;;;;;3.63;1.70;;;35.30;27.10;;;;;;6122250;28;20032;-81
2021/06/04 12:57:25;;;;;;;3.83;1.77;;;36.20;26.60;;;;;;6135099;28;20039;-80
2021/06/04 13:00:31;;;;;;;6.53;1.42;;;37.00;25.80;;;;;;6152546;28;20043;-82
2021/06/04 13:03:35;;;;;;;3.53;1.20;;;37.70;25.50;;;;;;6138073;28;20031;-81
2021/06/04 13:06:46;;;;;;;2.90;1.60;;;38.30;24.80;;;;;;6135851;28;20031;-79
2021/06/04 13:09:57;;;;;;;2.53;1.50;;;38.90;24.20;;;;;;6140980;28;20063;-80
2021/06/04 13:13:22;;;;;;;4.05;1.58;;;39.30;23.80;;;;;;6141688;28;20412;-79
2021/06/04 13:16:27;;;;;;;5.07;1.85;;;39.80;23.50;;;;;;6182281;28;20060;-79
2021/06/04 13:19:34;;;;;;;3.30;1.98;;;40.40;22.90;;;;;;6194417;28;20469;-79
2021/06/04 13:22:36;;;;;;;2.00;1.52;;;40.20;22.80;;;;;;6189278;28;20088;-80
2021/06/04 13:25:39;;;;;;;7.57;1.83;;;39.70;23.50;;;;;;6181033;28;20061;-79
2021/06/04 13:28:48;;;;;;;3.83;1.92;;;40.10;23.00;;;;;;6180886;28;20037;-79
2021/06/04 13:31:50;;;;;;;3.63;1.80;;;40.40;22.60;;;;;;6163463;28;20045;-79
2021/06/04 13:35:17;;;;;;;2.10;1.60;;;40.30;22.70;;;;;;6181116;28;20042;-80
2021/06/04 13:38:39;;;;;;;28.98;16.02;;;39.80;23.20;;;;;;6180428;28;20034;-79
2021/06/04 13:41:48;;;;;;;6.38;2.03;;;39.40;23.70;;;;;;6179133;28;20133;-79
2021/06/04 13:44:50;;;;;;;4.15;2.20;;;40.40;23.10;;;;;;6179440;28;20102;-78
2021/06/04 13:48:15;;;;;;;3.58;1.50;;;41.50;22.40;;;;;;6180646;28;20125;-79
2021/06/04 13:51:29;;;;;;;6.35;1.73;;;42.50;21.60;;;;;;6181875;28;20105;-79
2021/06/04 13:54:57;;;;;;;5.25;1.80;;;42.00;21.70;;;;;;6198625;28;20045;-80
2021/06/04 13:58:26;;;;;;;3.53;1.60;;;41.00;22.30;;;;;;6170429;28;20313;-79
2021/06/04 14:01:29;;;;;;;8.82;1.77;;;39.60;23.60;;;;;;6191886;28;20038;-79
2021/06/04 14:04:47;;;;;;;3.03;1.85;;;38.00;24.70;;;;;;6195098;28;20319;-79
2021/06/04 14:07:48;;;;;;;5.27;1.70;;;36.70;26.00;;;;;;6182194;28;20419;-79
2021/06/04 14:10:58;;;;;;;3.22;1.95;;;35.60;27.10;;;;;;6175382;28;20286;-78
2021/06/04 14:14:06;;;;;;;2.30;1.80;;;34.70;28.00;;;;;;6183132;28;20034;-79
2021/06/04 14:17:36;;;;;;;5.90;1.67;;;34.00;28.80;;;;;;6175942;28;20478;-79
2021/06/04 14:20:42;;;;;;;1.83;1.70;;;33.50;29.40;;;;;;6151021;28;20072;-78
2021/06/04 14:24:19;;;;;;;4.07;1.80;;;34.30;29.40;;;;;;6193404;28;20133;-79
2021/06/04 14:27:31;;;;;;;5.30;1.90;;;35.70;28.10;;;;;;6178587;28;20077;-79
2021/06/04 14:31:02;;;;;;;1.65;1.55;;;37.60;26.20;;;;;;6199927;28;20435;-79
2021/06/04 14:34:12;;;;;;;4.20;1.48;;;39.00;24.10;;;;;;6218723;28;20044;-80
2021/06/04 14:37:37;;;;;;;2.30;1.60;;;39.50;23.30;;;;;;6188963;28;20042;-79
2021/06/04 14:40:38;;;;;;;2.80;1.67;;;38.50;23.70;;;;;;6177770;28;20065;-79
2021/06/04 14:43:42;;;;;;;8.20;1.98;;;37.80;24.40;;;;;;6177122;28;20486;-80
2021/06/04 14:46:43;;;;;;;3.50;1.60;;;38.20;24.20;;;;;;6159782;28;20034;-79
2021/06/04 14:49:47;;;;;;;4.78;1.95;;;39.20;23.80;;;;;;6162918;28;20041;-79
2021/06/04 14:52:49;;;;;;;2.35;1.45;;;39.90;23.00;;;;;;6195131;28;20030;-79
2021/06/04 14:55:50;;;;;;;2.58;1.48;;;40.10;22.50;;;;;;6177532;28;20030;-80
2021/06/04 14:58:51;;;;;;;7.00;2.28;;;39.50;22.70;;;;;;6177007;28;20045;-79
2021/06/04 15:01:53;;;;;;;3.80;1.48;;;38.50;23.50;;;;;;6176829;28;20114;-80
2021/06/04 15:04:58;;;;;;;5.90;1.45;;;37.60;24.40;;;;;;6168529;28;20415;-82
2021/06/04 15:07:59;;;;;;;9.07;1.80;;;36.90;25.10;;;;;;6196434;28;20359;-83
2021/06/04 15:11:02;;;;;;;5.15;1.73;;;36.00;25.80;;;;;;6153409;28;20419;-82
2021/06/04 15:14:04;;;;;;;3.47;1.40;;;35.10;26.50;;;;;;6194259;28;20092;-80
2021/06/04 15:17:05;;;;;;;4.25;1.40;;;34.30;27.30;;;;;;6183548;28;20442;-81
2021/06/04 15:20:09;;;;;;;3.05;1.63;;;33.70;28.00;;;;;;6188051;28;20405;-83
2021/06/04 15:23:10;;;;;;;4.22;1.58;;;33.30;28.50;;;;;;6162278;28;20042;-81
2021/06/04 15:26:13;;;;;;;5.20;1.45;;;32.90;28.80;;;;;;6170572;28;20364;-81
2021/06/04 15:29:17;;;;;;;3.65;1.55;;;32.80;29.10;;;;;;6171199;28;20069;-80
2021/06/04 15:32:21;;;;;;;5.80;1.70;;;32.90;29.10;;;;;;6174406;28;20045;-80
2021/06/04 15:35:22;;;;;;;11.45;2.13;;;33.20;28.90;;;;;;6173428;28;20478;-80
2021/06/04 15:38:23;;;;;;;3.38;1.70;;;34.20;28.00;;;;;;6177617;28;20038;-80
2021/06/04 15:41:33;;;;;;;5.13;1.88;;;35.10;27.00;;;;;;6193199;28;20054;-81
2021/06/04 15:44:35;;;;;;;2.03;1.50;;;35.70;26.40;;;;;;6178169;28;20038;-80
2021/06/04 15:47:39;;;;;;;1.35;1.15;;;35.30;26.50;;;;;;6177721;28;20122;-81
2021/06/04 15:50:40;;;;;;;5.43;1.55;;;34.60;27.20;;;;;;6176542;28;20074;-81
2021/06/04 15:53:48;;;;;;;5.05;1.65;;;33.80;28.00;;;;;;6178074;28;20364;-81
2021/06/04 15:56:49;;;;;;;5.97;1.70;;;33.10;29.20;;;;;;6160690;28;20053;-80
2021/06/04 15:59:50;;;;;;;3.20;1.50;;;32.40;30.70;;;;;;6176791;28;20472;-82
2021/06/04 16:02:52;;;;;;;7.53;1.67;;;31.70;32.20;;;;;;6178129;28;20070;-80
2021/06/04 16:05:53;;;;;;;7.10;1.42;;;31.30;33.00;;;;;;6159990;28;20417;-80
2021/06/04 16:08:54;;;;;;;2.45;1.42;;;31.10;33.20;;;;;;6175829;28;20034;-81
2021/06/04 16:11:55;;;;;;;10.48;1.85;;;31.10;33.10;;;;;;6177401;28;20035;-80
2021/06/04 16:14:57;;;;;;;4.43;2.05;;;31.00;33.00;;;;;;6199728;28;20435;-81
2021/06/04 16:17:59;;;;;;;3.20;1.88;;;30.90;33.20;;;;;;6201825;28;20110;-80
2021/06/04 16:21:01;;;;;;;3.30;1.63;;;30.80;33.50;;;;;;6182948;28;20034;-81
2021/06/04 16:24:04;;;;;;;5.78;1.88;;;30.70;33.70;;;;;;6179017;28;20039;-80
2021/06/04 16:27:06;;;;;;;2.42;1.73;;;30.80;33.70;;;;;;6182193;28;20165;-81
2021/06/04 16:30:10;;;;;;;2.33;1.63;;;31.10;33.60;;;;;;6198527;28;20042;-81
2021/06/04 16:33:13;;;;;;;2.33;1.55;;;31.50;33.10;;;;;;6191703;28;20045;-80